createdAt,value
2018-09-26T00:01:14.438Z,7.80
2018-09-26T00:03:46.423Z,7.80
2018-09-26T00:06:15.641Z,7.90
2018-09-26T00:08:45.155Z,7.80
2018-09-26T00:11:14.017Z,7.70
2018-09-26T00:13:42.852Z,7.40
2018-09-26T00:16:11.573Z,7.20
2018-09-26T00:18:41.009Z,7.20
2018-09-26T00:21:09.883Z,7.20
2018-09-26T00:23:38.575Z,7.30
2018-09-26T00:26:07.846Z,7.20
2018-09-26T00:28:36.762Z,7.20
2018-09-26T00:31:05.348Z,7.30
2018-09-26T00:33:34.095Z,7.40
2018-09-26T00:36:02.916Z,7.40
2018-09-26T00:38:32.329Z,7.30
2018-09-26T00:41:01.699Z,7.30
2018-09-26T00:43:31.233Z,7.20
2018-09-26T00:45:59.974Z,6.80
2018-09-26T00:48:29.187Z,6.80
2018-09-26T00:50:58.046Z,6.70
2018-09-26T00:53:28.001Z,6.70
2018-09-26T00:55:56.855Z,6.80
2018-09-26T00:58:25.723Z,6.90
2018-09-26T01:00:54.495Z,6.90
2018-09-26T01:03:23.703Z,6.90
2018-09-26T01:05:52.383Z,6.80
2018-09-26T01:08:22.011Z,6.40
2018-09-26T01:10:50.730Z,6.30
2018-09-26T01:13:19.978Z,6.40
2018-09-26T01:15:49.537Z,6.50
2018-09-26T01:18:18.070Z,6.40
2018-09-26T01:20:47.826Z,6.50
2018-09-26T01:23:17.233Z,6.50
2018-09-26T01:25:45.871Z,6.40
2018-09-26T01:28:14.921Z,6.50
2018-09-26T01:30:43.894Z,6.40
2018-09-26T01:33:12.527Z,6.40
2018-09-26T01:35:41.942Z,6.10
2018-09-26T01:38:10.861Z,5.90
2018-09-26T01:40:39.588Z,5.90
2018-09-26T01:43:08.838Z,6.00
2018-09-26T01:45:38.319Z,5.80
2018-09-26T01:48:07.961Z,5.70
2018-09-26T01:50:36.751Z,5.70
2018-09-26T01:53:05.477Z,5.60
2018-09-26T01:55:34.393Z,5.60
2018-09-26T01:58:03.045Z,5.60
2018-09-26T02:00:31.898Z,5.70
2018-09-26T02:03:00.659Z,5.80
2018-09-26T02:05:29.645Z,5.90
2018-09-26T02:07:58.256Z,5.90
2018-09-26T02:10:27.067Z,5.80
2018-09-26T02:12:55.638Z,5.80
2018-09-26T02:15:24.294Z,5.80
2018-09-26T02:17:53.853Z,5.80
2018-09-26T02:20:22.601Z,5.80
2018-09-26T02:22:51.622Z,5.80
2018-09-26T02:25:20.994Z,5.70
2018-09-26T02:27:50.194Z,5.70
2018-09-26T02:30:25.432Z,5.60
2018-09-26T02:32:54.857Z,5.50
2018-09-26T02:35:23.494Z,5.50
2018-09-26T02:37:53.130Z,5.40
2018-09-26T02:40:22.243Z,5.40
2018-09-26T02:42:51.063Z,5.50
2018-09-26T02:45:19.801Z,5.40
2018-09-26T02:47:49.394Z,5.50
2018-09-26T02:50:18.217Z,5.60
2018-09-26T02:52:47.746Z,5.60
2018-09-26T02:55:16.492Z,5.70
2018-09-26T02:57:45.102Z,5.60
2018-09-26T03:00:14.581Z,5.40
2018-09-26T03:02:44.793Z,5.40
2018-09-26T03:05:13.333Z,5.40
2018-09-26T03:07:42.104Z,5.50
2018-09-26T03:10:11.027Z,5.50
2018-09-26T03:12:40.489Z,5.40
2018-09-26T03:15:09.010Z,5.30
2018-09-26T03:17:37.863Z,5.30
2018-09-26T03:20:07.046Z,5.30
2018-09-26T03:22:35.912Z,5.30
2018-09-26T03:25:04.654Z,5.30
2018-09-26T03:27:33.284Z,5.20
2018-09-26T03:30:02.289Z,4.90
2018-09-26T03:32:31.002Z,4.90
2018-09-26T03:35:00.450Z,5.00
2018-09-26T03:37:29.077Z,5.10
2018-09-26T03:39:57.626Z,5.00
2018-09-26T03:42:26.219Z,4.90
2018-09-26T03:44:54.863Z,4.90
2018-09-26T03:47:24.601Z,4.90
2018-09-26T03:49:53.903Z,5.00
2018-09-26T03:52:23.782Z,5.00
2018-09-26T03:54:53.039Z,4.90
2018-09-26T03:57:21.764Z,4.80
2018-09-26T03:59:50.490Z,4.90
2018-09-26T04:02:19.021Z,5.00
2018-09-26T04:04:47.782Z,5.00
2018-09-26T04:07:16.961Z,5.00
2018-09-26T04:09:45.771Z,5.00
2018-09-26T04:12:14.501Z,4.90
2018-09-26T04:14:43.106Z,4.90
2018-09-26T04:17:12.009Z,4.60
2018-09-26T04:19:40.661Z,4.60
2018-09-26T04:22:10.387Z,4.70
2018-09-26T04:24:39.939Z,4.70
2018-09-26T04:27:08.803Z,4.50
2018-09-26T04:29:38.054Z,4.40
2018-09-26T04:32:07.503Z,4.30
2018-09-26T04:34:37.078Z,4.20
2018-09-26T04:37:06.108Z,4.20
2018-09-26T04:39:35.330Z,4.40
2018-09-26T04:42:04.457Z,4.50
2018-09-26T04:44:33.367Z,4.60
2018-09-26T04:47:02.021Z,4.70
2018-09-26T04:49:31.300Z,4.80
2018-09-26T04:52:00.162Z,4.80
2018-09-26T04:54:29.579Z,4.60
2018-09-26T04:56:59.237Z,4.40
2018-09-26T04:59:27.965Z,4.40
2018-09-26T05:01:56.947Z,4.30
2018-09-26T05:04:25.929Z,4.30
2018-09-26T05:06:54.501Z,4.20
2018-09-26T05:09:23.239Z,4.20
2018-09-26T05:11:52.178Z,4.30
2018-09-26T05:14:21.123Z,4.30
2018-09-26T05:16:49.985Z,4.50
2018-09-26T05:19:18.750Z,4.60
2018-09-26T05:21:47.632Z,4.50
2018-09-26T05:24:16.526Z,4.50
2018-09-26T05:26:45.186Z,4.50
2018-09-26T05:29:13.859Z,4.40
2018-09-26T05:31:43.305Z,4.20
2018-09-26T05:34:12.124Z,4.30
2018-09-26T05:36:40.691Z,4.40
2018-09-26T05:39:11.202Z,4.60
2018-09-26T05:41:39.873Z,4.50
2018-09-26T05:44:08.682Z,4.60
2018-09-26T05:46:38.468Z,4.60
2018-09-26T05:49:07.046Z,4.70
2018-09-26T05:51:36.043Z,4.80
2018-09-26T05:54:04.659Z,4.90
2018-09-26T05:56:33.436Z,5.00
2018-09-26T05:59:02.883Z,5.10
2018-09-26T06:01:31.788Z,4.90
2018-09-26T06:04:00.637Z,4.80
2018-09-26T06:06:29.272Z,4.90
2018-09-26T06:08:58.195Z,5.00
2018-09-26T06:11:26.728Z,5.00
2018-09-26T06:13:56.271Z,5.10
2018-09-26T06:16:24.954Z,5.30
2018-09-26T06:18:54.460Z,5.50
2018-09-26T06:21:22.971Z,5.70
2018-09-26T06:23:52.765Z,5.90
2018-09-26T06:26:21.462Z,6.00
2018-09-26T06:28:49.999Z,6.10
2018-09-26T06:31:19.533Z,6.30
2018-09-26T06:33:48.787Z,6.40
2018-09-26T06:36:17.448Z,6.50
2018-09-26T06:38:46.888Z,6.60
2018-09-26T06:41:16.362Z,6.40
2018-09-26T06:43:44.982Z,6.30
2018-09-26T06:46:13.607Z,6.40
2018-09-26T06:48:42.776Z,6.40
2018-09-26T06:51:11.632Z,6.40
2018-09-26T06:53:40.630Z,6.30
2018-09-26T06:56:09.439Z,6.50
2018-09-26T06:58:38.428Z,6.80
2018-09-26T07:01:07.599Z,7.00
2018-09-26T07:03:36.827Z,7.20
2018-09-26T07:06:06.549Z,7.30
2018-09-26T07:08:35.170Z,7.60
2018-09-26T07:11:04.786Z,7.70
2018-09-26T07:13:33.338Z,7.50
2018-09-26T07:16:02.141Z,7.50
2018-09-26T07:18:30.911Z,7.90
2018-09-26T07:21:00.147Z,8.30
2018-09-26T07:23:28.858Z,8.20
2018-09-26T07:25:57.496Z,8.20
2018-09-26T07:28:26.346Z,8.30
2018-09-26T07:30:55.327Z,8.50
2018-09-26T07:33:23.853Z,9.00
2018-09-26T07:35:53.447Z,9.40
2018-09-26T07:38:22.170Z,9.80
2018-09-26T07:40:51.102Z,10.30
2018-09-26T07:43:19.648Z,10.70
2018-09-26T07:45:48.505Z,11.10
2018-09-26T07:48:17.429Z,11.10
2018-09-26T07:50:46.460Z,10.50
2018-09-26T07:53:15.882Z,10.80
2018-09-26T07:55:45.174Z,10.90
2018-09-26T07:58:14.184Z,10.90
2018-09-26T08:00:43.597Z,11.60
2018-09-26T08:03:13.026Z,12.10
2018-09-26T08:05:42.257Z,12.30
2018-09-26T08:08:10.796Z,12.80
2018-09-26T08:10:39.410Z,13.30
2018-09-26T08:13:08.060Z,13.70
2018-09-26T08:15:37.439Z,14.00
2018-09-26T08:18:06.310Z,14.30
2018-09-26T08:20:35.040Z,14.70
2018-09-26T08:23:03.841Z,14.80
2018-09-26T08:25:32.511Z,14.80
2018-09-26T08:28:01.088Z,15.00
2018-09-26T08:30:29.927Z,14.80
2018-09-26T08:32:59.368Z,15.00
2018-09-26T08:35:28.532Z,14.70
2018-09-26T08:37:57.079Z,15.10
2018-09-26T08:40:25.910Z,15.30
2018-09-26T08:42:54.601Z,15.20
2018-09-26T08:45:23.647Z,15.50
2018-09-26T08:47:52.441Z,15.50
2018-09-26T08:50:20.998Z,15.90
2018-09-26T08:52:50.305Z,16.20
2018-09-26T08:55:19.069Z,16.50
2018-09-26T08:57:48.001Z,16.40
2018-09-26T09:00:20.785Z,16.00
2018-09-26T09:02:49.405Z,15.80
2018-09-26T09:05:18.156Z,16.20
2018-09-26T09:07:47.464Z,15.90
2018-09-26T09:10:16.633Z,15.90
2018-09-26T09:12:45.220Z,16.20
2018-09-26T09:15:14.394Z,16.50
2018-09-26T09:17:43.424Z,16.70
2018-09-26T09:20:12.919Z,16.30
2018-09-26T09:22:41.930Z,15.80
2018-09-26T09:25:10.514Z,16.20
2018-09-26T09:27:39.507Z,16.60
2018-09-26T09:30:08.496Z,17.10
2018-09-26T09:32:37.194Z,17.40
2018-09-26T09:35:06.505Z,17.70
2018-09-26T09:37:35.777Z,17.70
2018-09-26T09:40:04.489Z,17.90
2018-09-26T09:42:33.914Z,17.70
2018-09-26T09:45:02.602Z,17.90
2018-09-26T09:47:31.730Z,17.90
2018-09-26T09:50:01.090Z,18.10
2018-09-26T09:52:30.096Z,18.20
2018-09-26T09:54:58.739Z,18.20
2018-09-26T09:57:27.430Z,18.00
2018-09-26T09:59:56.201Z,18.30
2018-09-26T10:02:25.141Z,18.60
2018-09-26T10:04:53.766Z,18.40
2018-09-26T10:07:22.596Z,18.20
2018-09-26T10:09:51.961Z,18.40
2018-09-26T10:12:20.589Z,18.50
2018-09-26T10:14:49.796Z,18.60
2018-09-26T10:17:18.375Z,18.80
2018-09-26T10:19:47.519Z,18.90
2018-09-26T10:22:16.163Z,18.90
2018-09-26T10:24:44.755Z,18.80
2018-09-26T10:27:13.345Z,18.90
2018-09-26T10:29:42.252Z,18.90
2018-09-26T10:32:12.031Z,19.00
2018-09-26T10:34:41.224Z,19.00
2018-09-26T10:37:09.765Z,19.30
2018-09-26T10:39:38.910Z,19.30
2018-09-26T10:42:08.278Z,19.50
2018-09-26T10:44:37.322Z,19.50
2018-09-26T10:47:06.197Z,19.50
2018-09-26T10:49:34.816Z,19.90
2018-09-26T10:52:03.944Z,20.00
2018-09-26T10:54:32.786Z,20.10
2018-09-26T10:57:01.876Z,20.20
2018-09-26T10:59:32.211Z,20.10
2018-09-26T11:02:01.218Z,20.10
2018-09-26T11:04:29.892Z,20.20
2018-09-26T11:06:58.632Z,20.20
2018-09-26T11:09:27.257Z,19.50
2018-09-26T11:11:56.362Z,19.90
2018-09-26T11:14:24.939Z,20.00
2018-09-26T11:16:54.212Z,20.30
2018-09-26T11:19:23.214Z,20.30
2018-09-26T11:21:51.780Z,20.50
2018-09-26T11:24:20.558Z,20.90
2018-09-26T11:26:49.200Z,20.80
2018-09-26T11:29:18.645Z,20.10
2018-09-26T11:31:47.357Z,19.60
2018-09-26T11:34:16.603Z,19.20
2018-09-26T11:36:45.331Z,19.50
2018-09-26T11:39:15.025Z,20.10
2018-09-26T11:41:43.759Z,19.60
2018-09-26T11:44:12.369Z,19.70
2018-09-26T11:46:41.603Z,20.50
2018-09-26T11:49:10.843Z,21.00
2018-09-26T11:51:39.964Z,21.20
2018-09-26T11:54:08.495Z,21.40
2018-09-26T11:56:37.263Z,21.30
2018-09-26T11:59:06.018Z,21.30
2018-09-26T12:01:34.707Z,20.80
2018-09-26T12:04:04.267Z,20.60
2018-09-26T12:06:33.766Z,20.60
2018-09-26T12:09:03.006Z,20.40
2018-09-26T12:11:32.230Z,20.90
2018-09-26T12:14:01.558Z,21.60
2018-09-26T12:16:30.050Z,22.00
2018-09-26T12:18:58.584Z,22.00
2018-09-26T12:21:30.539Z,21.10
2018-09-26T12:23:56.735Z,21.30
2018-09-26T12:26:25.966Z,21.40
2018-09-26T12:28:55.097Z,20.50
2018-09-26T12:31:23.750Z,20.50
2018-09-26T12:33:52.281Z,21.40
2018-09-26T12:36:21.740Z,21.80
2018-09-26T12:38:50.748Z,22.20
2018-09-26T12:41:19.258Z,22.20
2018-09-26T12:43:47.867Z,22.30
2018-09-26T12:46:17.277Z,22.40
2018-09-26T12:48:45.822Z,22.40
2018-09-26T12:51:14.933Z,22.60
2018-09-26T12:53:43.943Z,22.50
2018-09-26T12:56:12.990Z,22.80
2018-09-26T12:58:41.561Z,23.10
2018-09-26T13:01:11.069Z,22.90
2018-09-26T13:03:40.137Z,22.40
2018-09-26T13:06:09.042Z,21.90
2018-09-26T13:08:37.914Z,21.70
2018-09-26T13:11:07.330Z,22.10
2018-09-26T13:13:35.969Z,21.50
2018-09-26T13:16:05.240Z,21.00
2018-09-26T13:18:34.385Z,20.70
2018-09-26T13:21:03.135Z,21.10
2018-09-26T13:23:31.885Z,21.30
2018-09-26T13:26:01.006Z,20.90
2018-09-26T13:28:30.138Z,20.70
2018-09-26T13:30:58.928Z,20.80
2018-09-26T13:33:27.659Z,20.90
2018-09-26T13:35:56.592Z,20.70
2018-09-26T13:38:25.160Z,20.70
2018-09-26T13:40:53.821Z,20.50
2018-09-26T13:43:23.312Z,20.60
2018-09-26T13:45:52.523Z,20.80
2018-09-26T13:48:21.272Z,20.80
2018-09-26T13:50:50.939Z,20.70
2018-09-26T13:53:19.618Z,20.50
2018-09-26T13:55:49.087Z,20.40
2018-09-26T13:58:17.893Z,20.40
2018-09-26T14:00:47.704Z,20.40
2018-09-26T14:03:16.729Z,20.50
2018-09-26T14:05:45.473Z,20.70
2018-09-26T14:08:14.159Z,20.70
2018-09-26T14:10:43.052Z,20.50
2018-09-26T14:13:12.497Z,20.40
2018-09-26T14:15:41.348Z,20.40
2018-09-26T14:18:10.744Z,20.50
2018-09-26T14:20:39.483Z,20.30
2018-09-26T14:23:08.489Z,20.30
2018-09-26T14:25:37.266Z,20.20
2018-09-26T14:28:06.053Z,20.10
2018-09-26T14:30:35.227Z,20.20
2018-09-26T14:33:04.326Z,20.40
2018-09-26T14:35:33.005Z,20.40
2018-09-26T14:38:02.274Z,20.20
2018-09-26T14:40:31.678Z,20.10
2018-09-26T14:43:00.715Z,20.10
2018-09-26T14:45:29.206Z,20.10
2018-09-26T14:47:57.798Z,20.10
2018-09-26T14:50:26.715Z,20.00
2018-09-26T14:52:56.033Z,19.90
2018-09-26T14:55:24.578Z,19.80
2018-09-26T14:57:53.647Z,19.80
2018-09-26T15:00:22.742Z,19.70
2018-09-26T15:02:51.239Z,19.70
2018-09-26T15:05:20.101Z,19.70
2018-09-26T15:07:48.647Z,19.60
2018-09-26T15:10:17.240Z,19.50
2018-09-26T15:12:45.853Z,19.40
2018-09-26T15:15:14.458Z,19.40
2018-09-26T15:17:43.057Z,19.40
2018-09-26T15:20:12.641Z,19.30
2018-09-26T15:22:41.822Z,19.20
2018-09-26T15:25:10.519Z,19.20
2018-09-26T15:27:39.946Z,19.20
2018-09-26T15:30:08.550Z,19.10
2018-09-26T15:32:37.516Z,19.10
2018-09-26T15:35:06.042Z,19.10
2018-09-26T15:37:35.368Z,19.00
2018-09-26T15:40:04.610Z,19.00
2018-09-26T15:42:34.587Z,19.00
2018-09-26T15:45:03.786Z,19.00
2018-09-26T15:47:33.292Z,19.10
2018-09-26T15:50:02.395Z,19.00
2018-09-26T15:52:32.266Z,18.90
2018-09-26T15:55:01.501Z,18.80
2018-09-26T15:57:30.277Z,18.80
2018-09-26T15:59:59.152Z,18.70
2018-09-26T16:02:28.009Z,18.70
2018-09-26T16:04:57.686Z,18.60
2018-09-26T16:07:27.445Z,18.60
2018-09-26T16:09:56.716Z,18.60
2018-09-26T16:12:25.808Z,18.50
2018-09-26T16:14:54.605Z,18.60
2018-09-26T16:17:23.397Z,18.60
2018-09-26T16:19:52.258Z,18.50
2018-09-26T16:22:21.382Z,18.50
2018-09-26T16:24:50.456Z,18.40
2018-09-26T16:27:19.524Z,18.30
2018-09-26T16:29:48.737Z,18.20
2018-09-26T16:32:17.560Z,18.20
2018-09-26T16:34:46.087Z,18.10
2018-09-26T16:37:15.042Z,18.10
2018-09-26T16:39:43.703Z,18.00
2018-09-26T16:42:12.320Z,17.90
2018-09-26T16:44:41.228Z,17.80
2018-09-26T16:47:11.103Z,17.60
2018-09-26T16:49:39.700Z,17.60
2018-09-26T16:52:08.377Z,17.50
2018-09-26T16:54:37.347Z,17.40
2018-09-26T16:57:06.964Z,17.30
2018-09-26T16:59:36.506Z,17.20
2018-09-26T17:02:05.387Z,17.10
2018-09-26T17:04:34.907Z,17.10
2018-09-26T17:07:04.032Z,16.90
2018-09-26T17:09:33.430Z,16.90
2018-09-26T17:12:02.410Z,16.80
2018-09-26T17:14:30.955Z,16.70
2018-09-26T17:16:59.844Z,16.80
2018-09-26T17:19:28.614Z,16.60
2018-09-26T17:21:57.613Z,16.60
2018-09-26T17:24:26.407Z,16.60
2018-09-26T17:26:55.062Z,16.40
2018-09-26T17:29:23.708Z,16.40
2018-09-26T17:31:52.261Z,16.30
2018-09-26T17:34:20.903Z,16.20
2018-09-26T17:36:49.600Z,16.10
2018-09-26T17:39:19.038Z,15.90
2018-09-26T17:41:48.293Z,15.60
2018-09-26T17:44:17.163Z,15.60
2018-09-26T17:46:45.765Z,15.70
2018-09-26T17:49:14.998Z,15.70
2018-09-26T17:51:44.253Z,15.60
2018-09-26T17:54:13.724Z,15.60
2018-09-26T17:56:42.513Z,15.60
2018-09-26T17:59:11.693Z,15.50
2018-09-26T18:01:41.267Z,15.30
2018-09-26T18:04:11.069Z,15.20
2018-09-26T18:06:39.806Z,15.20
2018-09-26T18:09:10.365Z,15.10
2018-09-26T18:11:38.914Z,14.90
2018-09-26T18:14:08.003Z,14.90
2018-09-26T18:16:37.754Z,14.90
2018-09-26T18:19:07.440Z,14.90
2018-09-26T18:21:36.635Z,14.90
2018-09-26T18:24:05.218Z,14.90
2018-09-26T18:26:34.237Z,15.00
2018-09-26T18:29:03.578Z,15.00
2018-09-26T18:31:32.951Z,15.00
2018-09-26T18:34:01.602Z,15.00
2018-09-26T18:36:30.433Z,14.90
2018-09-26T18:38:59.319Z,14.90
2018-09-26T18:41:27.843Z,14.80
2018-09-26T18:43:56.496Z,14.60
2018-09-26T18:46:25.538Z,14.50
2018-09-26T18:48:54.816Z,14.50
2018-09-26T18:51:24.139Z,14.40
2018-09-26T18:53:53.492Z,14.30
2018-09-26T18:56:22.310Z,14.10
2018-09-26T18:58:51.959Z,14.00
2018-09-26T19:01:21.233Z,14.00
2018-09-26T19:03:49.948Z,13.90
2018-09-26T19:06:19.660Z,13.80
2018-09-26T19:08:48.934Z,13.70
2018-09-26T19:11:18.130Z,13.70
2018-09-26T19:13:47.132Z,13.50
2018-09-26T19:16:15.833Z,13.50
2018-09-26T19:18:44.694Z,13.40
2018-09-26T19:21:13.880Z,13.50
2018-09-26T19:23:43.166Z,13.50
2018-09-26T19:26:11.812Z,13.40
2018-09-26T19:28:41.127Z,13.40
2018-09-26T19:31:10.404Z,13.30
2018-09-26T19:33:39.741Z,13.30
2018-09-26T19:36:09.095Z,13.30
2018-09-26T19:38:37.934Z,13.30
2018-09-26T19:41:06.628Z,13.20
2018-09-26T19:43:35.755Z,13.20
2018-09-26T19:46:04.852Z,13.20
2018-09-26T19:48:33.511Z,13.10
2018-09-26T19:51:02.495Z,13.10
2018-09-26T19:53:31.134Z,13.10
2018-09-26T19:55:59.681Z,13.20
2018-09-26T19:58:28.428Z,13.20
2018-09-26T20:00:58.007Z,13.10
2018-09-26T20:03:26.828Z,13.10
2018-09-26T20:05:55.453Z,13.10
2018-09-26T20:08:24.368Z,13.00
2018-09-26T20:10:53.099Z,12.90
2018-09-26T20:13:22.626Z,12.90
2018-09-26T20:15:51.271Z,12.90
2018-09-26T20:18:19.919Z,12.80
2018-09-26T20:20:49.230Z,12.70
2018-09-26T20:23:18.050Z,12.60
2018-09-26T20:25:47.028Z,12.60
2018-09-26T20:28:16.137Z,12.50
2018-09-26T20:30:45.013Z,12.60
2018-09-26T20:33:14.835Z,12.60
2018-09-26T20:35:43.561Z,12.50
2018-09-26T20:38:12.185Z,12.50
2018-09-26T20:40:40.921Z,12.50
2018-09-26T20:43:09.935Z,12.40
2018-09-26T20:45:39.280Z,12.40
2018-09-26T20:48:08.006Z,12.30
2018-09-26T20:50:37.618Z,12.20
2018-09-26T20:53:07.066Z,12.10
2018-09-26T20:55:36.280Z,12.10
2018-09-26T20:58:05.045Z,12.00
2018-09-26T21:00:33.800Z,11.90
2018-09-26T21:03:02.936Z,11.80
2018-09-26T21:05:32.323Z,11.80
2018-09-26T21:08:01.555Z,11.90
2018-09-26T21:10:30.920Z,11.90
2018-09-26T21:13:00.754Z,11.90
2018-09-26T21:15:29.407Z,11.90
2018-09-26T21:17:58.033Z,11.90
2018-09-26T21:20:27.009Z,11.90
2018-09-26T21:22:56.292Z,11.80
2018-09-26T21:25:24.753Z,11.80
2018-09-26T21:27:53.621Z,11.80
2018-09-26T21:30:22.308Z,11.80
2018-09-26T21:32:51.486Z,11.70
2018-09-26T21:35:20.969Z,11.70
2018-09-26T21:37:49.984Z,11.50
2018-09-26T21:40:19.247Z,11.50
2018-09-26T21:42:48.124Z,11.20
2018-09-26T21:45:17.597Z,11.20
2018-09-26T21:47:46.204Z,11.30
2018-09-26T21:50:14.908Z,11.30
2018-09-26T21:52:43.558Z,11.40
2018-09-26T21:55:12.044Z,11.40
2018-09-26T21:57:41.370Z,11.40
2018-09-26T22:00:10.122Z,11.40
2018-09-26T22:02:38.777Z,11.30
2018-09-26T22:05:07.534Z,11.30
2018-09-26T22:07:36.399Z,11.30
2018-09-26T22:10:05.826Z,11.30
2018-09-26T22:12:35.858Z,11.20
2018-09-26T22:15:09.590Z,11.10
2018-09-26T22:17:39.397Z,11.10
2018-09-26T22:20:08.915Z,10.80
2018-09-26T22:22:37.670Z,10.80
2018-09-26T22:25:06.345Z,10.80
2018-09-26T22:27:35.848Z,10.80
2018-09-26T22:30:04.926Z,10.60
2018-09-26T22:32:34.445Z,10.50
2018-09-26T22:35:03.524Z,10.40
2018-09-26T22:37:32.407Z,10.30
2018-09-26T22:40:01.360Z,10.30
2018-09-26T22:42:30.038Z,10.40
2018-09-26T22:44:58.924Z,10.40
2018-09-26T22:47:27.998Z,10.40
2018-09-26T22:49:58.454Z,10.20
2018-09-26T22:52:27.493Z,10.20
2018-09-26T22:54:57.064Z,10.20
2018-09-26T22:57:25.725Z,10.20
2018-09-26T22:59:55.481Z,10.20
2018-09-26T23:02:25.596Z,10.20
2018-09-26T23:04:55.063Z,10.10
2018-09-26T23:07:24.304Z,10.00
2018-09-26T23:09:53.458Z,9.90
2018-09-26T23:12:22.741Z,9.80
2018-09-26T23:14:51.928Z,9.80
2018-09-26T23:17:20.754Z,9.90
2018-09-26T23:19:50.286Z,9.80
2018-09-26T23:22:19.074Z,9.80
2018-09-26T23:24:48.190Z,9.90
2018-09-26T23:27:18.101Z,9.80
2018-09-26T23:29:47.732Z,9.70
2018-09-26T23:32:17.046Z,9.50
2018-09-26T23:34:46.365Z,9.40
2018-09-26T23:37:15.940Z,9.40
2018-09-26T23:39:44.815Z,9.50
2018-09-26T23:42:14.041Z,9.50
2018-09-26T23:44:43.375Z,9.50
2018-09-26T23:47:12.563Z,9.50
2018-09-26T23:49:41.809Z,9.50
2018-09-26T23:52:11.211Z,9.50
2018-09-26T23:54:40.425Z,9.40
2018-09-26T23:57:09.353Z,9.20
2018-09-26T23:59:38.235Z,9.20
